METAR AND TAF INFORMATION
METAR FOR LSZH
LSZH 230520Z VRB01KT 9999 FEW049 BKN053 18/15 Q1022 NOSIG
LSZH 230450Z VRB02KT 9999 FEW047 BKN051 18/15 Q1022 NOSIG
LSZH 230420Z 33003KT 9999 FEW032 OVC050 18/15 Q1022 NOSIG
LSZH 230350Z 31003KT 9999 FEW044 OVC049 18/15 Q1022 NOSIG
LSZH 230320Z AUTO 32003KT 9999 3800S BKN045 18/14 Q1022 NOSIG
LSZH 230250Z AUTO 32002KT 9999 SCT045 SCT050 BKN065 18/14 Q1022 NOSIG

TAF LSZH 230525Z 2306/2412 VRB02KT 9999 BKN040 TX26/2315Z TN18/2306Z TN16/2404Z
BECMG 2310/2313 29008KT
PROB30
TEMPO 2317/2321 SHRA
BECMG 2319/2321 VRB02KT

 AIRPORT MAP

 RUNWAY INFORMATION
Runway 10 Runway length 8202 ft Runway width 197 ft
Runway elevation 1391 ft Runway displaced threshold 0 ft Runway heading 96
Runway 28 Runway length 8202 ft Runway width 197 ft
Runway elevation 1416 ft Runway displaced threshold 0 ft Runway heading 276
Runway 14 Runway length 10827 ft Runway width 197 ft
Runway elevation 1402 ft Runway displaced threshold 490 ft Runway heading 137
Runway 32 Runway length 10827 ft Runway width 197 ft
Runway elevation 1402 ft Runway displaced threshold 0 ft Runway heading 317
Runway 16 Runway length 12139 ft Runway width 197 ft
Runway elevation 1390 ft Runway displaced threshold 0 ft Runway heading 155
Runway 34 Runway length 12139 ft Runway width 197 ft
Runway elevation 1388 ft Runway displaced threshold 1541 ft Runway heading 335

 AIRPORT FREQUENCIES
Type APP Name APP Frequency 118 MHZ
Type ATIS Name ATIS Frequency 125.725 MHZ
Type CLD Name CLNC DEL Frequency 121.8 MHZ
Type DEP Name DEP Frequency 125.95 MHZ
Type GND Name GND Frequency 121.9 MHZ
Type RMP Name APRON Frequency 121.75 MHZ
Type TCA Name TERMINAL Frequency 127.75 MHZ
Type TWR Name TWR Frequency 118.1 MHZ

 AIRPORT NEAR NAVIGATION AIDS
Type VOR-DME Name Kloten Frequency 114850 KHZ
Type VOR-DME Name Zurich East Frequency 110050 KHZ

-